To NAV CANADA Home Page Login to a new session Search on AWWS site Feedback and Comments Disclaimer Vers la page française équivalente Tips FAQ What's new on the site To the Forecasts and Observations / NOTAM section To "File a Flight Plan" website Publications and other links Update of the User's profile FIC Telephone Numbers My Weather Data Folder Route Weather Data Regional Weather Data Local Weather Data To the Forecasts and Observations / NOTAM section
Request Generated 03/28/2017 at 02:18:13 UTC . Weather information available at that time is displayed.

METAR/TAF

YARMOUTH/NS    

METAR CYQI 280200Z 12016G25KT 3SM -RA BR OVC008 01/01 A3002 RMK SF8
SLP169=
METAR CYQI 280100Z 11019G25KT 9SM -RA OVC008 01/00 A3006 RMK SF8
PRESFR SLP181=
METAR CYQI 280000Z 11017G24KT 3SM -RA BR BKN008 OVC020 00/M00 A3009
RMK SF6NS2 SLP192=

TAF AMD CYQI 280019Z 2800/2812 11015G25KT 6SM -FZRA -PL BR BKN008
OVC020 TEMPO 2800/2801 2SM -RA BR OVC004
FM280100 11018G28KT 2SM -RA BR OVC004 TEMPO 2801/2807 6SM -RA BR
OVC006 PROB30 2804/2807 1/2SM -DZ FG VV002
FM280700 08012G22KT 3SM -DZ BR OVC004 TEMPO 2807/2812 1SM BR
OVC002
RMK NXT FCST BY 280600Z=
Your time UTC time
Weather data provided by Environment Canada and NAV CANADA